sensor_id;sensor_type;location;lat;lon;timestamp;P1;durP1;ratioP1;P2;durP2;ratioP2
21822;SDS011;11074;48.596;9.238;2024-01-15T00:01:05;22.53;;;11.23;;
21822;SDS011;11074;48.596;9.238;2024-01-15T00:03:30;24.95;;;10.75;;
21822;SDS011;11074;48.596;9.238;2024-01-15T00:05:55;23.05;;;10.50;;
21822;SDS011;11074;48.596;9.238;2024-01-15T00:08:20;25.80;;;11.10;;
21822;SDS011;11074;48.596;9.238;2024-01-15T00:10:46;27.00;;;11.20;;
21822;SDS011;11074;48.596;9.238;2024-01-15T00:13:11;23.43;;;10.23;;
21822;SDS011;11074;48.596;9.238;2024-01-15T00:15:36;25.83;;;10.75;;
21822;SDS011;11074;48.596;9.238;2024-01-15T00:18:02;23.83;;;10.13;;
21822;SDS011;11074;48.596;9.238;2024-01-15T00:20:27;23.30;;;10.07;;
21822;SDS011;11074;48.596;9.238;2024-01-15T00:22:52;22.30;;;10.35;;
21822;SDS011;11074;48.596;9.238;2024-01-15T00:25:18;22.15;;;9.88;;
21822;SDS011;11074;48.596;9.238;2024-01-15T00:27:43;25.15;;;10.18;;
21822;SDS011;11074;48.596;9.238;2024-01-15T00:30:08;20.37;;;9.77;;
21822;SDS011;11074;48.596;9.238;2024-01-15T00:32:34;24.98;;;10.20;;
21822;SDS011;11074;48.596;9.238;2024-01-15T00:34:59;21.95;;;9.45;;
21822;SDS011;11074;48.596;9.238;2024-01-15T00:37:24;20.48;;;8.88;;
21822;SDS011;11074;48.596;9.238;2024-01-15T00:39:50;21.40;;;9.73;;
21822;SDS011;11074;48.596;9.238;2024-01-15T00:42:15;21.48;;;9.27;;
21822;SDS011;11074;48.596;9.238;2024-01-15T00:44:41;23.83;;;9.85;;
21822;SDS011;11074;48.596;9.238;2024-01-15T00:47:07;20.95;;;9.40;;
21822;SDS011;11074;48.596;9.238;2024-01-15T00:49:32;20.42;;;9.13;;
21822;SDS011;11074;48.596;9.238;2024-01-15T00:51:58;22.58;;;9.52;;
21822;SDS011;11074;48.596;9.238;2024-01-15T00:54:23;21.38;;;9.77;;
21822;SDS011;11074;48.596;9.238;2024-01-15T00:56:48;19.85;;;9.25;;
21822;SDS011;11074;48.596;9.238;2024-01-15T00:59:14;20.23;;;9.57;;
21822;SDS011;11074;48.596;9.238;2024-01-15T01:01:42;22.23;;;9.70;;
21822;SDS011;11074;48.596;9.238;2024-01-15T01:04:11;22.60;;;10.25;;
21822;SDS011;11074;48.596;9.238;2024-01-15T01:06:36;23.67;;;10.38;;
21822;SDS011;11074;48.596;9.238;2024-01-15T01:09:02;21.38;;;10.00;;
21822;SDS011;11074;48.596;9.238;2024-01-15T01:11:27;24.48;;;10.30;;
21822;SDS011;11074;48.596;9.238;2024-01-15T01:13:52;22.55;;;10.35;;
21822;SDS011;11074;48.596;9.238;2024-01-15T01:16:17;21.13;;;10.10;;
21822;SDS011;11074;48.596;9.238;2024-01-15T01:18:43;22.00;;;9.77;;
21822;SDS011;11074;48.596;9.238;2024-01-15T01:21:08;24.10;;;10.80;;
21822;SDS011;11074;48.596;9.238;2024-01-15T01:23:33;20.90;;;9.73;;
21822;SDS011;11074;48.596;9.238;2024-01-15T01:25:59;21.58;;;9.50;;
21822;SDS011;11074;48.596;9.238;2024-01-15T01:28:24;20.20;;;9.37;;
21822;SDS011;11074;48.596;9.238;2024-01-15T01:30:49;23.27;;;9.95;;
21822;SDS011;11074;48.596;9.238;2024-01-15T01:33:15;21.70;;;9.68;;
21822;SDS011;11074;48.596;9.238;2024-01-15T01:35:40;20.48;;;9.88;;
21822;SDS011;11074;48.596;9.238;2024-01-15T01:38:05;20.52;;;9.75;;
21822;SDS011;11074;48.596;9.238;2024-01-15T01:40:31;19.27;;;9.55;;
21822;SDS011;11074;48.596;9.238;2024-01-15T01:42:56;22.08;;;9.70;;
21822;SDS011;11074;48.596;9.238;2024-01-15T01:45:21;20.27;;;8.87;;
21822;SDS011;11074;48.596;9.238;2024-01-15T01:47:47;22.13;;;9.38;;
21822;SDS011;11074;48.596;9.238;2024-01-15T01:50:12;23.23;;;10.23;;
21822;SDS011;11074;48.596;9.238;2024-01-15T01:52:39;22.40;;;9.55;;
21822;SDS011;11074;48.596;9.238;2024-01-15T01:55:04;21.98;;;9.85;;
21822;SDS011;11074;48.596;9.238;2024-01-15T01:57:32;21.08;;;9.57;;
21822;SDS011;11074;48.596;9.238;2024-01-15T02:00:00;23.73;;;9.93;;
21822;SDS011;11074;48.596;9.238;2024-01-15T02:02:28;19.30;;;9.13;;
21822;SDS011;11074;48.596;9.238;2024-01-15T02:04:54;23.60;;;9.73;;
21822;SDS011;11074;48.596;9.238;2024-01-15T02:07:19;23.58;;;9.65;;
21822;SDS011;11074;48.596;9.238;2024-01-15T02:09:45;23.85;;;9.15;;
21822;SDS011;11074;48.596;9.238;2024-01-15T02:12:11;19.15;;;8.65;;
21822;SDS011;11074;48.596;9.238;2024-01-15T02:14:36;22.65;;;9.32;;
21822;SDS011;11074;48.596;9.238;2024-01-15T02:17:02;20.95;;;9.50;;
21822;SDS011;11074;48.596;9.238;2024-01-15T02:19:27;22.08;;;10.07;;
21822;SDS011;11074;48.596;9.238;2024-01-15T02:21:52;20.20;;;9.02;;
21822;SDS011;11074;48.596;9.238;2024-01-15T02:24:18;24.40;;;9.32;;
21822;SDS011;11074;48.596;9.238;2024-01-15T02:26:43;20.95;;;8.43;;
21822;SDS011;11074;48.596;9.238;2024-01-15T02:29:09;19.55;;;8.75;;
21822;SDS011;11074;48.596;9.238;2024-01-15T02:31:36;20.10;;;8.93;;
21822;SDS011;11074;48.596;9.238;2024-01-15T02:34:01;21.60;;;9.23;;
21822;SDS011;11074;48.596;9.238;2024-01-15T02:36:27;19.88;;;8.52;;
21822;SDS011;11074;48.596;9.238;2024-01-15T02:38:52;21.43;;;9.77;;
21822;SDS011;11074;48.596;9.238;2024-01-15T02:41:17;20.55;;;9.18;;
21822;SDS011;11074;48.596;9.238;2024-01-15T02:43:43;22.05;;;9.23;;
21822;SDS011;11074;48.596;9.238;2024-01-15T02:46:08;21.17;;;9.13;;
21822;SDS011;11074;48.596;9.238;2024-01-15T02:48:33;24.50;;;9.35;;
21822;SDS011;11074;48.596;9.238;2024-01-15T02:51:00;23.50;;;9.27;;
21822;SDS011;11074;48.596;9.238;2024-01-15T02:53:26;20.25;;;8.75;;
21822;SDS011;11074;48.596;9.238;2024-01-15T02:55:51;18.77;;;8.65;;
21822;SDS011;11074;48.596;9.238;2024-01-15T02:58:17;18.90;;;8.80;;
21822;SDS011;11074;48.596;9.238;2024-01-15T03:00:42;21.87;;;8.93;;
21822;SDS011;11074;48.596;9.238;2024-01-15T03:03:07;21.85;;;9.35;;
21822;SDS011;11074;48.596;9.238;2024-01-15T03:05:33;19.20;;;8.27;;
21822;SDS011;11074;48.596;9.238;2024-01-15T03:07:58;19.05;;;8.93;;
21822;SDS011;11074;48.596;9.238;2024-01-15T03:10:23;17.83;;;8.02;;
21822;SDS011;11074;48.596;9.238;2024-01-15T03:12:49;21.38;;;8.73;;
21822;SDS011;11074;48.596;9.238;2024-01-15T03:15:14;20.45;;;8.48;;
21822;SDS011;11074;48.596;9.238;2024-01-15T03:17:41;17.85;;;7.95;;
21822;SDS011;11074;48.596;9.238;2024-01-15T03:20:07;20.02;;;8.50;;
21822;SDS011;11074;48.596;9.238;2024-01-15T03:22:32;25.42;;;9.32;;
21822;SDS011;11074;48.596;9.238;2024-01-15T03:24:58;21.40;;;8.32;;
21822;SDS011;11074;48.596;9.238;2024-01-15T03:27:23;21.10;;;8.63;;
21822;SDS011;11074;48.596;9.238;2024-01-15T03:29:48;21.00;;;8.52;;
21822;SDS011;11074;48.596;9.238;2024-01-15T03:32:14;21.73;;;8.83;;
21822;SDS011;11074;48.596;9.238;2024-01-15T03:34:41;21.42;;;8.50;;
21822;SDS011;11074;48.596;9.238;2024-01-15T03:37:06;20.77;;;8.70;;
21822;SDS011;11074;48.596;9.238;2024-01-15T03:39:31;20.58;;;8.90;;
21822;SDS011;11074;48.596;9.238;2024-01-15T03:41:56;20.30;;;8.57;;
21822;SDS011;11074;48.596;9.238;2024-01-15T03:44:22;21.33;;;8.38;;
21822;SDS011;11074;48.596;9.238;2024-01-15T03:46:47;19.43;;;8.13;;
21822;SDS011;11074;48.596;9.238;2024-01-15T03:49:13;19.13;;;8.47;;
21822;SDS011;11074;48.596;9.238;2024-01-15T03:51:38;22.17;;;8.95;;
21822;SDS011;11074;48.596;9.238;2024-01-15T03:54:03;18.52;;;8.85;;
21822;SDS011;11074;48.596;9.238;2024-01-15T03:56:28;19.85;;;8.70;;
21822;SDS011;11074;48.596;9.238;2024-01-15T03:58:54;18.38;;;7.78;;
21822;SDS011;11074;48.596;9.238;2024-01-15T04:01:19;19.67;;;8.23;;
21822;SDS011;11074;48.596;9.238;2024-01-15T04:03:44;20.42;;;8.60;;
21822;SDS011;11074;48.596;9.238;2024-01-15T04:06:10;19.53;;;8.00;;
21822;SDS011;11074;48.596;9.238;2024-01-15T04:08:35;22.02;;;8.68;;
21822;SDS011;11074;48.596;9.238;2024-01-15T04:11:00;23.95;;;9.52;;
21822;SDS011;11074;48.596;9.238;2024-01-15T04:13:26;23.83;;;8.85;;
21822;SDS011;11074;48.596;9.238;2024-01-15T04:15:52;21.30;;;8.73;;
21822;SDS011;11074;48.596;9.238;2024-01-15T04:18:17;23.02;;;8.88;;
21822;SDS011;11074;48.596;9.238;2024-01-15T04:20:43;21.83;;;8.95;;
21822;SDS011;11074;48.596;9.238;2024-01-15T04:23:08;19.48;;;8.23;;
21822;SDS011;11074;48.596;9.238;2024-01-15T04:25:34;21.45;;;8.70;;
21822;SDS011;11074;48.596;9.238;2024-01-15T04:27:59;22.97;;;8.83;;
21822;SDS011;11074;48.596;9.238;2024-01-15T04:30:24;20.70;;;8.98;;
21822;SDS011;11074;48.596;9.238;2024-01-15T04:32:50;22.95;;;9.60;;
21822;SDS011;11074;48.596;9.238;2024-01-15T04:35:15;22.83;;;9.30;;
21822;SDS011;11074;48.596;9.238;2024-01-15T04:37:40;21.65;;;9.75;;
21822;SDS011;11074;48.596;9.238;2024-01-15T04:40:06;23.23;;;9.63;;
21822;SDS011;11074;48.596;9.238;2024-01-15T04:42:32;23.92;;;9.57;;
21822;SDS011;11074;48.596;9.238;2024-01-15T04:44:57;24.45;;;10.77;;
21822;SDS011;11074;48.596;9.238;2024-01-15T04:47:22;22.13;;;10.07;;
21822;SDS011;11074;48.596;9.238;2024-01-15T04:49:48;23.93;;;10.03;;
21822;SDS011;11074;48.596;9.238;2024-01-15T04:52:14;22.63;;;9.25;;
21822;SDS011;11074;48.596;9.238;2024-01-15T04:54:39;24.55;;;9.43;;
21822;SDS011;11074;48.596;9.238;2024-01-15T04:57:04;20.77;;;9.17;;
21822;SDS011;11074;48.596;9.238;2024-01-15T04:59:30;22.42;;;10.45;;
21822;SDS011;11074;48.596;9.238;2024-01-15T05:01:56;20.00;;;9.07;;
21822;SDS011;11074;48.596;9.238;2024-01-15T05:04:21;22.87;;;9.53;;
21822;SDS011;11074;48.596;9.238;2024-01-15T05:06:47;23.08;;;10.25;;
21822;SDS011;11074;48.596;9.238;2024-01-15T05:09:12;25.33;;;10.18;;
21822;SDS011;11074;48.596;9.238;2024-01-15T05:11:38;23.15;;;9.50;;
21822;SDS011;11074;48.596;9.238;2024-01-15T05:14:04;24.15;;;9.73;;
21822;SDS011;11074;48.596;9.238;2024-01-15T05:16:29;22.80;;;10.13;;
21822;SDS011;11074;48.596;9.238;2024-01-15T05:18:54;23.08;;;9.98;;
21822;SDS011;11074;48.596;9.238;2024-01-15T05:21:20;26.35;;;10.45;;
21822;SDS011;11074;48.596;9.238;2024-01-15T05:23:45;22.40;;;9.50;;
21822;SDS011;11074;48.596;9.238;2024-01-15T05:26:10;23.00;;;10.17;;
21822;SDS011;11074;48.596;9.238;2024-01-15T05:28:36;24.23;;;10.27;;
21822;SDS011;11074;48.596;9.238;2024-01-15T05:31:01;23.52;;;9.98;;
21822;SDS011;11074;48.596;9.238;2024-01-15T05:33:27;22.40;;;9.70;;
21822;SDS011;11074;48.596;9.238;2024-01-15T05:35:52;20.98;;;8.43;;
21822;SDS011;11074;48.596;9.238;2024-01-15T05:38:18;21.23;;;8.85;;
21822;SDS011;11074;48.596;9.238;2024-01-15T05:40:44;25.20;;;10.27;;
21822;SDS011;11074;48.596;9.238;2024-01-15T05:43:09;23.33;;;10.03;;
21822;SDS011;11074;48.596;9.238;2024-01-15T05:45:34;19.33;;;9.23;;
21822;SDS011;11074;48.596;9.238;2024-01-15T05:48:03;20.58;;;9.15;;
21822;SDS011;11074;48.596;9.238;2024-01-15T05:50:28;21.50;;;10.27;;
21822;SDS011;11074;48.596;9.238;2024-01-15T05:52:54;23.38;;;10.57;;
21822;SDS011;11074;48.596;9.238;2024-01-15T05:55:19;25.55;;;10.82;;
21822;SDS011;11074;48.596;9.238;2024-01-15T05:57:45;24.17;;;10.35;;
21822;SDS011;11074;48.596;9.238;2024-01-15T06:00:10;20.70;;;10.27;;
21822;SDS011;11074;48.596;9.238;2024-01-15T06:02:39;23.42;;;10.50;;
21822;SDS011;11074;48.596;9.238;2024-01-15T06:05:05;21.88;;;9.57;;
21822;SDS011;11074;48.596;9.238;2024-01-15T06:07:31;24.80;;;10.10;;
21822;SDS011;11074;48.596;9.238;2024-01-15T06:09:57;24.13;;;10.70;;
21822;SDS011;11074;48.596;9.238;2024-01-15T06:12:22;19.58;;;9.50;;
21822;SDS011;11074;48.596;9.238;2024-01-15T06:14:47;19.92;;;9.75;;
21822;SDS011;11074;48.596;9.238;2024-01-15T06:17:13;19.90;;;9.27;;
21822;SDS011;11074;48.596;9.238;2024-01-15T06:19:38;23.13;;;10.10;;
21822;SDS011;11074;48.596;9.238;2024-01-15T06:22:03;19.73;;;8.90;;
21822;SDS011;11074;48.596;9.238;2024-01-15T06:24:28;22.43;;;9.17;;
21822;SDS011;11074;48.596;9.238;2024-01-15T06:26:54;22.02;;;10.07;;
21822;SDS011;11074;48.596;9.238;2024-01-15T06:29:19;21.25;;;10.32;;
21822;SDS011;11074;48.596;9.238;2024-01-15T06:31:44;22.13;;;10.65;;
21822;SDS011;11074;48.596;9.238;2024-01-15T06:34:09;25.23;;;10.90;;
21822;SDS011;11074;48.596;9.238;2024-01-15T06:36:35;22.48;;;9.77;;
21822;SDS011;11074;48.596;9.238;2024-01-15T06:39:00;21.83;;;10.43;;
21822;SDS011;11074;48.596;9.238;2024-01-15T06:41:25;30.30;;;12.77;;
21822;SDS011;11074;48.596;9.238;2024-01-15T06:43:51;27.00;;;11.63;;
21822;SDS011;11074;48.596;9.238;2024-01-15T06:46:22;22.17;;;9.73;;
21822;SDS011;11074;48.596;9.238;2024-01-15T06:48:48;22.70;;;9.90;;
21822;SDS011;11074;48.596;9.238;2024-01-15T06:51:14;22.05;;;9.65;;
21822;SDS011;11074;48.596;9.238;2024-01-15T06:53:40;23.77;;;10.82;;
21822;SDS011;11074;48.596;9.238;2024-01-15T06:56:05;21.10;;;9.50;;
21822;SDS011;11074;48.596;9.238;2024-01-15T06:58:31;19.57;;;8.63;;
21822;SDS011;11074;48.596;9.238;2024-01-15T07:00:56;20.20;;;10.13;;
21822;SDS011;11074;48.596;9.238;2024-01-15T07:03:21;21.13;;;9.52;;
21822;SDS011;11074;48.596;9.238;2024-01-15T07:05:47;22.50;;;9.65;;
21822;SDS011;11074;48.596;9.238;2024-01-15T07:08:12;20.73;;;8.53;;
21822;SDS011;11074;48.596;9.238;2024-01-15T07:10:38;19.35;;;8.27;;
21822;SDS011;11074;48.596;9.238;2024-01-15T07:13:03;18.73;;;9.17;;
21822;SDS011;11074;48.596;9.238;2024-01-15T07:15:30;18.42;;;8.80;;
21822;SDS011;11074;48.596;9.238;2024-01-15T07:17:55;18.13;;;8.80;;
21822;SDS011;11074;48.596;9.238;2024-01-15T07:20:20;19.97;;;8.87;;
21822;SDS011;11074;48.596;9.238;2024-01-15T07:22:46;18.43;;;8.77;;
21822;SDS011;11074;48.596;9.238;2024-01-15T07:25:11;21.33;;;9.23;;
21822;SDS011;11074;48.596;9.238;2024-01-15T07:27:37;21.33;;;9.40;;
21822;SDS011;11074;48.596;9.238;2024-01-15T07:30:03;18.65;;;8.93;;
21822;SDS011;11074;48.596;9.238;2024-01-15T07:32:30;21.17;;;9.15;;
21822;SDS011;11074;48.596;9.238;2024-01-15T07:34:56;19.55;;;8.85;;
21822;SDS011;11074;48.596;9.238;2024-01-15T07:37:21;18.98;;;9.18;;
21822;SDS011;11074;48.596;9.238;2024-01-15T07:39:48;21.30;;;9.07;;
21822;SDS011;11074;48.596;9.238;2024-01-15T07:42:13;21.52;;;9.20;;
21822;SDS011;11074;48.596;9.238;2024-01-15T07:44:39;17.77;;;8.00;;
21822;SDS011;11074;48.596;9.238;2024-01-15T07:47:04;18.33;;;9.07;;
21822;SDS011;11074;48.596;9.238;2024-01-15T07:49:30;16.45;;;7.85;;
21822;SDS011;11074;48.596;9.238;2024-01-15T07:51:55;19.48;;;8.77;;
21822;SDS011;11074;48.596;9.238;2024-01-15T07:54:20;16.85;;;8.02;;
21822;SDS011;11074;48.596;9.238;2024-01-15T07:59:20;17.70;;;9.18;;
21822;SDS011;11074;48.596;9.238;2024-01-15T08:01:46;15.75;;;7.68;;
21822;SDS011;11074;48.596;9.238;2024-01-15T08:04:12;17.35;;;7.93;;
21822;SDS011;11074;48.596;9.238;2024-01-15T08:06:38;16.02;;;7.65;;
21822;SDS011;11074;48.596;9.238;2024-01-15T08:09:03;16.30;;;8.07;;
21822;SDS011;11074;48.596;9.238;2024-01-15T08:11:29;18.00;;;7.72;;
21822;SDS011;11074;48.596;9.238;2024-01-15T08:13:55;16.55;;;7.35;;
21822;SDS011;11074;48.596;9.238;2024-01-15T08:16:20;15.73;;;7.43;;
21822;SDS011;11074;48.596;9.238;2024-01-15T08:18:46;16.07;;;7.17;;
21822;SDS011;11074;48.596;9.238;2024-01-15T08:21:12;13.32;;;6.18;;
21822;SDS011;11074;48.596;9.238;2024-01-15T08:23:37;13.93;;;5.85;;
21822;SDS011;11074;48.596;9.238;2024-01-15T08:26:02;14.50;;;6.72;;
21822;SDS011;11074;48.596;9.238;2024-01-15T08:28:28;13.60;;;6.43;;
21822;SDS011;11074;48.596;9.238;2024-01-15T08:30:53;13.77;;;6.40;;
21822;SDS011;11074;48.596;9.238;2024-01-15T08:33:18;13.97;;;5.90;;
21822;SDS011;11074;48.596;9.238;2024-01-15T08:35:43;15.00;;;6.50;;
21822;SDS011;11074;48.596;9.238;2024-01-15T08:38:08;15.10;;;7.33;;
21822;SDS011;11074;48.596;9.238;2024-01-15T08:40:34;14.23;;;6.82;;
21822;SDS011;11074;48.596;9.238;2024-01-15T08:42:59;15.60;;;6.68;;
21822;SDS011;11074;48.596;9.238;2024-01-15T08:45:24;13.80;;;6.40;;
21822;SDS011;11074;48.596;9.238;2024-01-15T08:47:50;13.57;;;6.25;;
21822;SDS011;11074;48.596;9.238;2024-01-15T08:50:15;15.68;;;6.93;;
21822;SDS011;11074;48.596;9.238;2024-01-15T08:52:40;13.75;;;5.93;;
21822;SDS011;11074;48.596;9.238;2024-01-15T08:55:06;14.98;;;6.07;;
21822;SDS011;11074;48.596;9.238;2024-01-15T08:57:32;13.90;;;5.97;;
21822;SDS011;11074;48.596;9.238;2024-01-15T08:59:57;10.18;;;5.20;;
21822;SDS011;11074;48.596;9.238;2024-01-15T09:02:24;10.35;;;5.28;;
21822;SDS011;11074;48.596;9.238;2024-01-15T09:04:49;12.70;;;6.07;;
21822;SDS011;11074;48.596;9.238;2024-01-15T09:07:14;12.00;;;5.33;;
21822;SDS011;11074;48.596;9.238;2024-01-15T09:09:39;12.88;;;5.72;;
21822;SDS011;11074;48.596;9.238;2024-01-15T09:12:07;15.90;;;6.95;;
21822;SDS011;11074;48.596;9.238;2024-01-15T09:14:32;13.23;;;5.25;;
21822;SDS011;11074;48.596;9.238;2024-01-15T09:16:59;10.57;;;5.78;;
21822;SDS011;11074;48.596;9.238;2024-01-15T09:19:24;11.60;;;5.53;;
21822;SDS011;11074;48.596;9.238;2024-01-15T09:21:49;12.27;;;5.47;;
21822;SDS011;11074;48.596;9.238;2024-01-15T09:24:15;12.00;;;5.45;;
21822;SDS011;11074;48.596;9.238;2024-01-15T09:26:40;11.88;;;5.82;;
21822;SDS011;11074;48.596;9.238;2024-01-15T09:29:05;10.55;;;5.35;;
21822;SDS011;11074;48.596;9.238;2024-01-15T09:31:31;11.43;;;5.53;;
21822;SDS011;11074;48.596;9.238;2024-01-15T09:33:56;11.18;;;4.55;;
21822;SDS011;11074;48.596;9.238;2024-01-15T09:36:23;8.90;;;4.55;;
21822;SDS011;11074;48.596;9.238;2024-01-15T09:38:48;11.93;;;5.18;;
21822;SDS011;11074;48.596;9.238;2024-01-15T09:41:14;15.55;;;5.90;;
21822;SDS011;11074;48.596;9.238;2024-01-15T09:43:40;15.48;;;6.53;;
21822;SDS011;11074;48.596;9.238;2024-01-15T09:46:05;12.32;;;5.78;;
21822;SDS011;11074;48.596;9.238;2024-01-15T09:48:30;10.85;;;4.30;;
21822;SDS011;11074;48.596;9.238;2024-01-15T09:50:58;11.30;;;4.90;;
21822;SDS011;11074;48.596;9.238;2024-01-15T09:53:26;17.25;;;7.47;;
21822;SDS011;11074;48.596;9.238;2024-01-15T09:55:52;10.20;;;4.38;;
21822;SDS011;11074;48.596;9.238;2024-01-15T09:58:18;11.32;;;4.40;;
21822;SDS011;11074;48.596;9.238;2024-01-15T10:00:44;7.82;;;4.00;;
21822;SDS011;11074;48.596;9.238;2024-01-15T10:03:09;8.68;;;4.35;;
21822;SDS011;11074;48.596;9.238;2024-01-15T10:05:36;8.98;;;3.92;;
21822;SDS011;11074;48.596;9.238;2024-01-15T10:08:02;8.52;;;3.83;;
21822;SDS011;11074;48.596;9.238;2024-01-15T10:10:29;6.55;;;3.15;;
21822;SDS011;11074;48.596;9.238;2024-01-15T10:12:54;7.97;;;3.90;;
21822;SDS011;11074;48.596;9.238;2024-01-15T10:15:23;8.15;;;3.38;;
21822;SDS011;11074;48.596;9.238;2024-01-15T10:17:48;8.77;;;3.33;;
21822;SDS011;11074;48.596;9.238;2024-01-15T10:20:14;5.88;;;2.92;;
21822;SDS011;11074;48.596;9.238;2024-01-15T10:22:40;8.50;;;2.65;;
21822;SDS011;11074;48.596;9.238;2024-01-15T10:25:09;6.97;;;2.80;;
21822;SDS011;11074;48.596;9.238;2024-01-15T10:27:35;5.03;;;2.55;;
21822;SDS011;11074;48.596;9.238;2024-01-15T10:30:00;4.27;;;2.63;;
21822;SDS011;11074;48.596;9.238;2024-01-15T10:32:27;6.00;;;3.00;;
21822;SDS011;11074;48.596;9.238;2024-01-15T10:34:52;7.25;;;3.00;;
21822;SDS011;11074;48.596;9.238;2024-01-15T10:37:18;5.93;;;2.90;;
21822;SDS011;11074;48.596;9.238;2024-01-15T10:39:43;6.60;;;3.07;;
21822;SDS011;11074;48.596;9.238;2024-01-15T10:42:09;6.82;;;3.30;;
21822;SDS011;11074;48.596;9.238;2024-01-15T10:44:35;7.10;;;3.50;;
21822;SDS011;11074;48.596;9.238;2024-01-15T10:47:00;7.55;;;3.20;;
21822;SDS011;11074;48.596;9.238;2024-01-15T10:49:26;9.80;;;3.00;;
21822;SDS011;11074;48.596;9.238;2024-01-15T10:51:53;5.55;;;2.40;;
21822;SDS011;11074;48.596;9.238;2024-01-15T10:54:19;6.22;;;2.85;;
21822;SDS011;11074;48.596;9.238;2024-01-15T10:56:45;6.55;;;2.30;;
21822;SDS011;11074;48.596;9.238;2024-01-15T10:59:11;4.53;;;2.33;;
21822;SDS011;11074;48.596;9.238;2024-01-15T11:01:38;5.13;;;2.63;;
21822;SDS011;11074;48.596;9.238;2024-01-15T11:04:04;3.58;;;2.20;;
21822;SDS011;11074;48.596;9.238;2024-01-15T11:06:41;5.75;;;2.45;;
21822;SDS011;11074;48.596;9.238;2024-01-15T11:09:07;7.40;;;2.42;;
21822;SDS011;11074;48.596;9.238;2024-01-15T11:11:35;5.72;;;2.47;;
21822;SDS011;11074;48.596;9.238;2024-01-15T11:14:01;4.50;;;2.22;;
21822;SDS011;11074;48.596;9.238;2024-01-15T11:16:28;4.15;;;2.47;;
21822;SDS011;11074;48.596;9.238;2024-01-15T11:19:18;6.18;;;2.65;;
21822;SDS011;11074;48.596;9.238;2024-01-15T11:21:43;4.78;;;2.67;;
21822;SDS011;11074;48.596;9.238;2024-01-15T11:24:09;7.60;;;2.70;;
21822;SDS011;11074;48.596;9.238;2024-01-15T11:29:09;6.82;;;2.95;;
21822;SDS011;11074;48.596;9.238;2024-01-15T11:32:03;7.70;;;3.10;;
21822;SDS011;11074;48.596;9.238;2024-01-15T11:37:15;7.00;;;2.45;;
21822;SDS011;11074;48.596;9.238;2024-01-15T11:39:41;4.82;;;2.78;;
21822;SDS011;11074;48.596;9.238;2024-01-15T11:42:09;10.13;;;3.20;;
21822;SDS011;11074;48.596;9.238;2024-01-15T11:44:36;6.18;;;2.90;;
21822;SDS011;11074;48.596;9.238;2024-01-15T11:47:03;6.45;;;2.75;;
21822;SDS011;11074;48.596;9.238;2024-01-15T11:49:39;5.60;;;3.05;;
21822;SDS011;11074;48.596;9.238;2024-01-15T11:52:33;5.07;;;2.50;;
21822;SDS011;11074;48.596;9.238;2024-01-15T11:55:19;7.43;;;3.03;;
21822;SDS011;11074;48.596;9.238;2024-01-15T11:57:51;6.43;;;3.00;;
21822;SDS011;11074;48.596;9.238;2024-01-15T12:00:19;7.70;;;2.90;;
21822;SDS011;11074;48.596;9.238;2024-01-15T12:02:46;8.02;;;3.55;;
21822;SDS011;11074;48.596;9.238;2024-01-15T12:05:18;6.35;;;3.60;;
21822;SDS011;11074;48.596;9.238;2024-01-15T12:07:45;7.43;;;3.43;;
21822;SDS011;11074;48.596;9.238;2024-01-15T12:10:16;9.00;;;3.97;;
21822;SDS011;11074;48.596;9.238;2024-01-15T12:13:16;5.70;;;3.05;;
21822;SDS011;11074;48.596;9.238;2024-01-15T12:15:38;7.10;;;4.10;;
21822;SDS011;11074;48.596;9.238;2024-01-15T12:18:08;6.28;;;3.13;;
21822;SDS011;11074;48.596;9.238;2024-01-15T12:20:34;8.80;;;3.80;;
21822;SDS011;11074;48.596;9.238;2024-01-15T12:23:00;6.97;;;3.78;;
21822;SDS011;11074;48.596;9.238;2024-01-15T12:25:26;7.75;;;3.70;;
21822;SDS011;11074;48.596;9.238;2024-01-15T12:27:52;7.20;;;4.10;;
21822;SDS011;11074;48.596;9.238;2024-01-15T12:30:18;7.63;;;3.90;;
21822;SDS011;11074;48.596;9.238;2024-01-15T12:32:44;8.15;;;3.88;;
21822;SDS011;11074;48.596;9.238;2024-01-15T12:35:12;7.65;;;3.90;;
21822;SDS011;11074;48.596;9.238;2024-01-15T12:37:42;8.20;;;4.38;;
21822;SDS011;11074;48.596;9.238;2024-01-15T12:40:08;8.52;;;4.22;;
21822;SDS011;11074;48.596;9.238;2024-01-15T12:42:36;7.45;;;4.05;;
21822;SDS011;11074;48.596;9.238;2024-01-15T12:45:02;8.93;;;4.50;;
21822;SDS011;11074;48.596;9.238;2024-01-15T12:47:29;9.57;;;4.80;;
21822;SDS011;11074;48.596;9.238;2024-01-15T12:49:55;7.45;;;4.20;;
21822;SDS011;11074;48.596;9.238;2024-01-15T12:52:22;11.13;;;5.82;;
21822;SDS011;11074;48.596;9.238;2024-01-15T12:54:48;11.27;;;5.75;;
21822;SDS011;11074;48.596;9.238;2024-01-15T12:57:14;9.15;;;4.50;;
21822;SDS011;11074;48.596;9.238;2024-01-15T12:59:40;10.73;;;5.07;;
21822;SDS011;11074;48.596;9.238;2024-01-15T13:02:05;10.93;;;5.10;;
21822;SDS011;11074;48.596;9.238;2024-01-15T13:04:31;17.85;;;9.07;;
21822;SDS011;11074;48.596;9.238;2024-01-15T13:06:56;12.23;;;6.40;;
21822;SDS011;11074;48.596;9.238;2024-01-15T13:09:22;12.07;;;5.68;;
21822;SDS011;11074;48.596;9.238;2024-01-15T13:11:47;10.57;;;5.40;;
21822;SDS011;11074;48.596;9.238;2024-01-15T13:14:12;10.85;;;5.40;;
21822;SDS011;11074;48.596;9.238;2024-01-15T13:16:41;8.90;;;4.82;;
21822;SDS011;11074;48.596;9.238;2024-01-15T13:19:07;12.68;;;6.97;;
21822;SDS011;11074;48.596;9.238;2024-01-15T13:21:33;11.55;;;6.65;;
21822;SDS011;11074;48.596;9.238;2024-01-15T13:23:59;11.45;;;5.45;;
21822;SDS011;11074;48.596;9.238;2024-01-15T13:26:24;12.98;;;5.95;;
21822;SDS011;11074;48.596;9.238;2024-01-15T13:28:50;13.18;;;6.65;;
21822;SDS011;11074;48.596;9.238;2024-01-15T13:31:15;13.27;;;7.40;;
21822;SDS011;11074;48.596;9.238;2024-01-15T13:33:40;13.02;;;6.55;;
21822;SDS011;11074;48.596;9.238;2024-01-15T13:36:06;13.27;;;7.40;;
21822;SDS011;11074;48.596;9.238;2024-01-15T13:38:35;10.23;;;5.68;;
21822;SDS011;11074;48.596;9.238;2024-01-15T13:41:04;11.32;;;5.93;;
21822;SDS011;11074;48.596;9.238;2024-01-15T13:43:31;10.45;;;5.53;;
21822;SDS011;11074;48.596;9.238;2024-01-15T13:45:57;14.75;;;6.55;;
21822;SDS011;11074;48.596;9.238;2024-01-15T13:48:22;12.95;;;6.82;;
21822;SDS011;11074;48.596;9.238;2024-01-15T13:50:47;13.38;;;8.13;;
21822;SDS011;11074;48.596;9.238;2024-01-15T13:53:13;15.80;;;7.10;;
21822;SDS011;11074;48.596;9.238;2024-01-15T13:55:38;15.83;;;7.23;;
21822;SDS011;11074;48.596;9.238;2024-01-15T13:58:03;16.63;;;7.80;;
21822;SDS011;11074;48.596;9.238;2024-01-15T14:00:30;25.95;;;10.75;;
21822;SDS011;11074;48.596;9.238;2024-01-15T14:02:56;33.65;;;15.73;;
21822;SDS011;11074;48.596;9.238;2024-01-15T14:05:22;17.25;;;7.35;;
21822;SDS011;11074;48.596;9.238;2024-01-15T14:07:48;14.90;;;7.47;;
21822;SDS011;11074;48.596;9.238;2024-01-15T14:10:13;16.42;;;6.90;;
21822;SDS011;11074;48.596;9.238;2024-01-15T14:12:38;12.32;;;6.82;;
21822;SDS011;11074;48.596;9.238;2024-01-15T14:15:04;17.63;;;7.60;;
21822;SDS011;11074;48.596;9.238;2024-01-15T14:17:31;15.50;;;7.82;;
21822;SDS011;11074;48.596;9.238;2024-01-15T14:19:56;19.75;;;9.45;;
21822;SDS011;11074;48.596;9.238;2024-01-15T14:22:22;21.73;;;10.63;;
21822;SDS011;11074;48.596;9.238;2024-01-15T14:24:47;20.35;;;10.50;;
21822;SDS011;11074;48.596;9.238;2024-01-15T14:27:12;16.27;;;8.23;;
21822;SDS011;11074;48.596;9.238;2024-01-15T14:29:38;61.40;;;24.70;;
21822;SDS011;11074;48.596;9.238;2024-01-15T14:32:03;28.60;;;12.77;;
21822;SDS011;11074;48.596;9.238;2024-01-15T14:34:30;24.80;;;11.43;;
21822;SDS011;11074;48.596;9.238;2024-01-15T14:36:55;45.05;;;19.90;;